createdAt,value
2023-01-07T00:01:37.833Z,12.70
2023-01-07T00:04:07.135Z,12.02
2023-01-07T00:06:36.935Z,12.45
2023-01-07T00:09:05.857Z,12.37
2023-01-07T00:11:35.861Z,13.40
2023-01-07T00:14:05.761Z,12.43
2023-01-07T00:16:34.805Z,12.30
2023-01-07T00:19:04.304Z,12.20
2023-01-07T00:21:31.796Z,12.95
2023-01-07T00:24:04.615Z,13.15
2023-01-07T00:26:34.091Z,13.27
2023-01-07T00:29:01.222Z,13.13
2023-01-07T00:31:31.075Z,13.95
2023-01-07T00:33:59.119Z,14.40
2023-01-07T00:36:30.010Z,14.20
2023-01-07T00:39:02.764Z,14.70
2023-01-07T00:41:29.667Z,16.25
2023-01-07T00:43:56.655Z,16.35
2023-01-07T00:46:23.584Z,23.52
2023-01-07T00:48:50.821Z,21.85
2023-01-07T00:51:19.049Z,23.30
2023-01-07T00:53:46.739Z,22.58
2023-01-07T00:56:15.325Z,21.12
2023-01-07T00:58:42.540Z,20.30
2023-01-07T01:01:11.214Z,18.52
2023-01-07T01:03:39.139Z,17.47
2023-01-07T01:06:11.390Z,15.80
2023-01-07T01:08:40.143Z,15.30
2023-01-07T01:11:09.274Z,14.57
2023-01-07T01:13:36.703Z,14.10
2023-01-07T01:16:08.360Z,13.80
2023-01-07T01:18:35.668Z,13.85
2023-01-07T01:21:11.973Z,15.73
2023-01-07T01:23:39.118Z,14.75
2023-01-07T01:26:10.832Z,14.45
2023-01-07T01:28:38.567Z,14.73
2023-01-07T01:31:06.113Z,14.15
2023-01-07T01:33:33.021Z,17.48
2023-01-07T01:36:02.924Z,21.95
2023-01-07T01:38:30.177Z,17.27
2023-01-07T01:40:57.028Z,16.40
2023-01-07T01:43:30.611Z,15.43
2023-01-07T01:46:04.339Z,14.75
2023-01-07T01:48:35.369Z,15.00
2023-01-07T01:51:03.827Z,14.65
2023-01-07T01:53:34.506Z,13.57
2023-01-07T01:56:11.377Z,13.82
2023-01-07T01:58:52.821Z,13.68
2023-01-07T02:01:19.887Z,13.55
2023-01-07T02:03:48.589Z,13.82
2023-01-07T02:06:24.031Z,14.43
2023-01-07T02:08:51.148Z,16.77
2023-01-07T02:11:18.025Z,16.15
2023-01-07T02:14:02.879Z,14.40
2023-01-07T02:16:33.040Z,14.90
2023-01-07T02:19:24.964Z,14.13
2023-01-07T02:22:13.675Z,13.98
2023-01-07T02:25:12.467Z,14.07
2023-01-07T02:27:57.860Z,13.38
2023-01-07T02:30:42.360Z,13.80
2023-01-07T02:33:20.960Z,14.17
2023-01-07T02:36:25.639Z,14.32
2023-01-07T02:39:01.587Z,14.43
2023-01-07T02:41:49.540Z,13.15
2023-01-07T02:44:28.174Z,14.35
2023-01-07T02:47:22.519Z,15.13
2023-01-07T02:49:49.786Z,13.68
2023-01-07T02:52:21.283Z,13.98
2023-01-07T02:55:10.816Z,13.98
2023-01-07T02:57:56.467Z,13.85
2023-01-07T03:01:04.057Z,13.43
2023-01-07T03:03:50.801Z,13.27
2023-01-07T03:06:51.257Z,13.85
2023-01-07T03:10:08.394Z,13.27
2023-01-07T03:12:43.753Z,13.98
2023-01-07T03:15:19.632Z,13.47
2023-01-07T03:17:53.213Z,13.68
2023-01-07T03:20:24.541Z,13.23
2023-01-07T03:22:53.597Z,14.35
2023-01-07T03:25:23.346Z,13.75
2023-01-07T03:27:52.490Z,13.73
2023-01-07T03:30:19.716Z,12.80
2023-01-07T03:32:54.458Z,14.05
2023-01-07T03:35:22.629Z,13.13
2023-01-07T03:37:51.690Z,14.87
2023-01-07T03:40:19.826Z,15.00
2023-01-07T03:42:50.052Z,14.80
2023-01-07T03:45:19.778Z,14.38
2023-01-07T03:47:49.427Z,14.43
2023-01-07T03:50:17.467Z,14.05
2023-01-07T03:52:44.748Z,14.57
2023-01-07T03:55:11.944Z,14.45
2023-01-07T03:57:38.876Z,13.95
2023-01-07T04:00:11.375Z,14.40
2023-01-07T04:02:38.395Z,15.63
2023-01-07T04:05:05.661Z,16.43
2023-01-07T04:07:32.544Z,17.27
2023-01-07T04:09:59.535Z,16.05
2023-01-07T04:12:26.379Z,15.63
2023-01-07T04:14:53.258Z,15.10
2023-01-07T04:17:20.195Z,15.50
2023-01-07T04:19:47.121Z,14.50
2023-01-07T04:22:14.043Z,15.13
2023-01-07T04:24:41.008Z,14.60
2023-01-07T04:27:07.896Z,14.55
2023-01-07T04:29:34.880Z,15.07
2023-01-07T04:32:01.864Z,15.05
2023-01-07T04:34:28.684Z,15.13
2023-01-07T04:36:55.569Z,14.73
2023-01-07T04:39:22.457Z,16.60
2023-01-07T04:41:49.404Z,15.77
2023-01-07T04:44:17.667Z,15.55
2023-01-07T04:46:44.954Z,15.98
2023-01-07T04:49:12.130Z,15.18
2023-01-07T04:51:39.030Z,17.55
2023-01-07T04:54:05.975Z,16.93
2023-01-07T04:56:33.391Z,16.35
2023-01-07T04:59:00.274Z,17.05
2023-01-07T05:01:27.827Z,17.02
2023-01-07T05:03:54.809Z,17.05
2023-01-07T05:06:21.734Z,17.00
2023-01-07T05:08:48.568Z,16.77
2023-01-07T05:11:21.476Z,15.98
2023-01-07T05:13:49.846Z,31.95
2023-01-07T05:16:17.454Z,21.67
2023-01-07T05:18:44.597Z,18.17
2023-01-07T05:21:12.498Z,15.10
2023-01-07T05:23:39.595Z,14.85
2023-01-07T05:26:06.841Z,15.82
2023-01-07T05:28:33.857Z,15.45
2023-01-07T05:31:00.818Z,15.23
2023-01-07T05:33:28.137Z,14.82
2023-01-07T05:35:55.182Z,15.02
2023-01-07T05:38:22.059Z,14.20
2023-01-07T05:40:50.079Z,14.02
2023-01-07T05:43:17.678Z,14.30
2023-01-07T05:45:46.189Z,14.95
2023-01-07T05:48:14.161Z,14.82
2023-01-07T05:50:41.418Z,14.52
2023-01-07T05:53:08.291Z,15.95
2023-01-07T05:55:37.529Z,17.20
2023-01-07T05:58:05.037Z,14.75
2023-01-07T06:00:31.897Z,15.05
2023-01-07T06:02:58.868Z,14.05
2023-01-07T06:05:26.114Z,15.35
2023-01-07T06:07:53.487Z,14.43
2023-01-07T06:10:20.932Z,13.05
2023-01-07T06:12:47.764Z,13.62
2023-01-07T06:15:14.695Z,15.30
2023-01-07T06:17:41.749Z,14.77
2023-01-07T06:20:09.432Z,13.87
2023-01-07T06:22:36.582Z,13.88
2023-01-07T06:25:04.225Z,13.18
2023-01-07T06:27:36.025Z,12.77
2023-01-07T06:30:05.154Z,11.50
2023-01-07T06:32:32.045Z,15.00
2023-01-07T06:34:58.908Z,14.93
2023-01-07T06:37:25.845Z,13.70
2023-01-07T06:39:52.742Z,13.55
2023-01-07T06:42:19.615Z,13.77
2023-01-07T06:44:47.018Z,13.90
2023-01-07T06:47:13.864Z,13.98
2023-01-07T06:49:40.949Z,13.65
2023-01-07T06:52:07.777Z,13.35
2023-01-07T06:54:34.714Z,12.32
2023-01-07T06:57:01.662Z,12.20
2023-01-07T06:59:28.651Z,12.25
2023-01-07T07:01:55.753Z,12.30
2023-01-07T07:04:22.792Z,13.23
2023-01-07T07:06:49.709Z,12.40
2023-01-07T07:09:16.749Z,12.93
2023-01-07T07:11:43.646Z,13.05
2023-01-07T07:14:10.814Z,13.70
2023-01-07T07:16:37.722Z,14.38
2023-01-07T07:19:04.571Z,15.82
2023-01-07T07:21:31.583Z,15.33
2023-01-07T07:24:00.584Z,15.10
2023-01-07T07:26:27.519Z,16.55
2023-01-07T07:28:54.504Z,15.73
2023-01-07T07:31:21.367Z,14.43
2023-01-07T07:33:48.477Z,14.57
2023-01-07T07:36:15.319Z,17.58
2023-01-07T07:38:42.219Z,26.27
2023-01-07T07:41:09.190Z,22.62
2023-01-07T07:43:36.420Z,21.30
2023-01-07T07:46:03.488Z,18.63
2023-01-07T07:48:30.654Z,17.35
2023-01-07T07:50:57.711Z,17.80
2023-01-07T07:53:24.692Z,18.05
2023-01-07T07:55:53.276Z,16.80
2023-01-07T07:58:20.614Z,14.67
2023-01-07T08:00:47.607Z,17.25
2023-01-07T08:03:14.510Z,17.35
2023-01-07T08:05:43.600Z,17.67
2023-01-07T08:08:12.226Z,19.90
2023-01-07T08:10:39.604Z,18.20
2023-01-07T08:13:06.539Z,18.02
2023-01-07T08:15:33.608Z,19.08
2023-01-07T08:18:05.813Z,19.52
2023-01-07T08:20:33.682Z,18.58
2023-01-07T08:23:02.046Z,17.07
2023-01-07T08:25:30.701Z,16.73
2023-01-07T08:27:59.024Z,16.85
2023-01-07T08:30:26.830Z,16.45
2023-01-07T08:32:54.257Z,18.05
2023-01-07T08:35:21.659Z,17.13
2023-01-07T08:37:49.009Z,17.48
2023-01-07T08:40:16.035Z,18.23
2023-01-07T08:42:42.891Z,18.12
2023-01-07T08:45:10.967Z,19.73
2023-01-07T08:47:38.463Z,19.27
2023-01-07T08:50:05.669Z,18.90
2023-01-07T08:52:32.583Z,19.17
2023-01-07T08:54:59.467Z,20.35
2023-01-07T08:57:26.310Z,20.45
2023-01-07T08:59:53.362Z,19.73
2023-01-07T09:02:20.587Z,18.00
2023-01-07T09:04:47.562Z,17.48
2023-01-07T09:07:14.504Z,15.52
2023-01-07T09:09:43.086Z,13.60
2023-01-07T09:12:11.186Z,14.27
2023-01-07T09:14:38.160Z,13.30
2023-01-07T09:17:05.120Z,14.18
2023-01-07T09:19:32.141Z,14.43
2023-01-07T09:21:58.972Z,14.13
2023-01-07T09:24:25.905Z,13.93
2023-01-07T09:26:52.775Z,13.15
2023-01-07T09:29:19.694Z,13.25
2023-01-07T09:31:46.761Z,14.13
2023-01-07T09:34:13.700Z,14.25
2023-01-07T09:36:40.567Z,15.27
2023-01-07T09:39:11.840Z,13.95
2023-01-07T09:41:57.160Z,14.77
2023-01-07T09:44:32.694Z,14.85
2023-01-07T09:47:00.421Z,15.25
2023-01-07T09:49:32.511Z,14.10
2023-01-07T09:52:11.099Z,13.40
2023-01-07T09:54:39.722Z,15.35
2023-01-07T09:57:07.019Z,15.90
2023-01-07T09:59:34.192Z,14.82
2023-01-07T10:02:25.458Z,13.00
2023-01-07T10:05:31.173Z,9.90
2023-01-07T10:08:29.268Z,9.80
2023-01-07T10:11:29.789Z,9.93
2023-01-07T10:14:15.244Z,9.88
2023-01-07T10:17:01.930Z,9.33
2023-01-07T10:19:36.062Z,9.65
2023-01-07T10:22:37.299Z,9.85
2023-01-07T10:25:13.637Z,8.70
2023-01-07T10:27:43.988Z,9.77
2023-01-07T10:30:19.790Z,10.03
2023-01-07T10:32:50.352Z,9.60
2023-01-07T10:35:21.403Z,9.98
2023-01-07T10:37:48.341Z,10.45
2023-01-07T10:40:26.408Z,9.68
2023-01-07T10:43:20.703Z,9.70
2023-01-07T10:46:11.354Z,10.40
2023-01-07T10:48:53.115Z,10.10
2023-01-07T10:51:37.961Z,9.38
2023-01-07T10:54:52.395Z,9.05
2023-01-07T10:57:25.957Z,9.83
2023-01-07T10:59:56.531Z,10.18
2023-01-07T11:02:28.284Z,8.98
2023-01-07T11:04:56.302Z,9.30
2023-01-07T11:07:28.926Z,9.23
2023-01-07T11:09:59.992Z,9.50
2023-01-07T11:12:38.116Z,9.07
2023-01-07T11:15:15.031Z,9.15
2023-01-07T11:17:50.831Z,8.20
2023-01-07T11:20:51.744Z,7.90
2023-01-07T11:23:34.733Z,8.13
2023-01-07T11:26:16.420Z,7.97
2023-01-07T11:28:55.096Z,8.32
2023-01-07T11:31:42.422Z,8.07
2023-01-07T11:34:24.111Z,8.40
2023-01-07T11:36:51.869Z,8.37
2023-01-07T11:39:22.789Z,7.90
2023-01-07T11:41:55.333Z,7.60
2023-01-07T11:44:22.402Z,7.53
2023-01-07T11:46:49.580Z,8.55
2023-01-07T11:49:30.653Z,7.93
2023-01-07T11:51:58.688Z,8.38
2023-01-07T11:54:28.561Z,8.43
2023-01-07T11:57:20.890Z,8.35
2023-01-07T11:59:47.863Z,7.60
2023-01-07T12:02:27.500Z,8.37
2023-01-07T12:05:19.050Z,8.00
2023-01-07T12:07:50.699Z,7.50
2023-01-07T12:10:38.261Z,8.00
2023-01-07T12:13:16.820Z,6.72
2023-01-07T12:15:58.900Z,6.37
2023-01-07T12:19:07.564Z,5.22
2023-01-07T12:21:51.293Z,5.45
2023-01-07T12:24:40.512Z,5.53
2023-01-07T12:27:28.829Z,3.60
2023-01-07T12:30:21.024Z,6.30
2023-01-07T12:33:03.384Z,7.62
2023-01-07T12:35:36.803Z,6.57
2023-01-07T12:38:14.078Z,4.60
2023-01-07T12:41:05.761Z,4.57
2023-01-07T12:43:37.039Z,4.97
2023-01-07T12:46:07.436Z,4.87
2023-01-07T12:48:49.048Z,4.75
2023-01-07T12:51:28.809Z,3.87
2023-01-07T12:54:05.778Z,4.20
2023-01-07T12:56:50.639Z,3.90
2023-01-07T12:59:46.316Z,3.90
2023-01-07T13:02:39.289Z,3.78
2023-01-07T13:05:16.038Z,4.00
2023-01-07T13:07:46.051Z,4.00
2023-01-07T13:10:24.790Z,4.47
2023-01-07T13:12:56.518Z,3.92
2023-01-07T13:15:27.055Z,4.25
2023-01-07T13:17:56.819Z,4.72
2023-01-07T13:21:06.534Z,5.00
2023-01-07T13:24:07.459Z,5.13
2023-01-07T13:27:03.641Z,5.57
2023-01-07T13:29:58.656Z,5.10
2023-01-07T13:32:45.505Z,5.95
2023-01-07T13:35:54.248Z,5.93
2023-01-07T13:38:44.720Z,5.70
2023-01-07T13:41:38.681Z,7.35
2023-01-07T13:44:29.544Z,6.78
2023-01-07T13:46:56.852Z,6.72
2023-01-07T13:49:30.074Z,6.55
2023-01-07T13:52:13.958Z,7.27
2023-01-07T13:55:02.902Z,6.87
2023-01-07T13:57:29.742Z,6.47
2023-01-07T14:00:00.167Z,6.47
2023-01-07T14:02:29.498Z,6.25
2023-01-07T14:05:24.594Z,6.13
2023-01-07T14:07:54.758Z,6.03
2023-01-07T14:10:33.357Z,6.70
2023-01-07T14:13:06.259Z,5.85
2023-01-07T14:15:50.775Z,6.37
2023-01-07T14:18:40.983Z,6.43
2023-01-07T14:21:31.116Z,7.53
2023-01-07T14:24:42.870Z,6.80
2023-01-07T14:27:28.044Z,6.18
2023-01-07T14:30:02.935Z,6.82
2023-01-07T14:32:39.205Z,6.87
2023-01-07T14:35:19.939Z,5.87
2023-01-07T14:37:47.223Z,6.22
2023-01-07T14:40:34.517Z,6.05
2023-01-07T14:43:03.054Z,6.62
2023-01-07T14:45:42.205Z,12.43
2023-01-07T14:48:09.018Z,14.27
2023-01-07T14:50:49.578Z,9.63
2023-01-07T14:53:45.425Z,8.63
2023-01-07T14:56:27.659Z,8.85
2023-01-07T14:59:12.670Z,8.50
2023-01-07T15:01:54.752Z,8.43
2023-01-07T15:04:45.850Z,9.10
2023-01-07T15:07:18.308Z,9.45
2023-01-07T15:10:13.504Z,9.95
2023-01-07T15:16:04.208Z,10.75
2023-01-07T15:18:34.413Z,11.25
2023-01-07T15:21:19.236Z,10.90
2023-01-07T15:23:54.866Z,10.32
2023-01-07T15:26:26.185Z,10.80
2023-01-07T15:29:18.387Z,12.15
2023-01-07T15:31:52.194Z,11.52
2023-01-07T15:34:20.787Z,11.50
2023-01-07T15:36:51.696Z,11.52
2023-01-07T15:39:32.331Z,12.13
2023-01-07T15:42:00.916Z,11.80
2023-01-07T15:44:40.878Z,13.05
2023-01-07T15:47:26.809Z,11.93
2023-01-07T15:49:54.066Z,11.95
2023-01-07T15:52:25.894Z,13.13
2023-01-07T15:54:55.818Z,12.55
2023-01-07T15:57:31.787Z,12.82
2023-01-07T15:59:58.960Z,13.82
2023-01-07T16:02:37.318Z,13.32
2023-01-07T16:05:06.411Z,13.50
2023-01-07T16:07:44.109Z,13.30
2023-01-07T16:10:24.411Z,13.60
2023-01-07T16:12:57.308Z,12.13
2023-01-07T16:15:33.012Z,11.68
2023-01-07T16:18:09.323Z,12.63
2023-01-07T16:20:40.659Z,12.60
2023-01-07T16:23:11.396Z,13.65
2023-01-07T16:25:43.459Z,13.18
2023-01-07T16:28:17.702Z,12.65
2023-01-07T16:30:46.728Z,12.07
2023-01-07T16:33:20.614Z,12.73
2023-01-07T16:35:49.244Z,13.05
2023-01-07T16:38:19.024Z,12.98
2023-01-07T16:40:48.862Z,12.60
2023-01-07T16:43:38.928Z,13.37
2023-01-07T16:46:08.653Z,12.10
2023-01-07T16:48:35.625Z,13.43
2023-01-07T16:51:02.730Z,13.95
2023-01-07T16:53:33.466Z,13.20
2023-01-07T16:56:12.386Z,13.20
2023-01-07T16:58:49.855Z,13.57
2023-01-07T17:01:38.101Z,11.55
2023-01-07T17:04:09.995Z,13.38
2023-01-07T17:06:42.324Z,12.73
2023-01-07T17:09:41.583Z,13.87
2023-01-07T17:12:27.388Z,12.93
2023-01-07T17:14:54.272Z,12.40
2023-01-07T17:17:26.693Z,12.65
2023-01-07T17:20:15.869Z,13.18
2023-01-07T17:22:44.109Z,11.43
2023-01-07T17:25:12.614Z,12.37
2023-01-07T17:27:47.397Z,12.63
2023-01-07T17:30:17.911Z,12.07
2023-01-07T17:32:48.006Z,12.52
2023-01-07T17:35:23.729Z,12.23
2023-01-07T17:37:51.674Z,12.73
2023-01-07T17:40:20.672Z,12.57
2023-01-07T17:43:06.986Z,14.20
2023-01-07T17:45:34.053Z,13.35
2023-01-07T17:48:01.497Z,13.20
2023-01-07T17:50:36.314Z,13.77
2023-01-07T17:53:03.989Z,13.93
2023-01-07T17:55:34.333Z,13.48
2023-01-07T17:58:01.268Z,14.57
2023-01-07T18:00:31.200Z,17.90
2023-01-07T18:02:58.496Z,18.60
2023-01-07T18:05:26.584Z,15.10
2023-01-07T18:07:53.679Z,13.75
2023-01-07T18:10:33.550Z,14.65
2023-01-07T18:13:00.426Z,13.13
2023-01-07T18:15:27.824Z,13.45
2023-01-07T18:17:54.771Z,12.85
2023-01-07T18:20:22.700Z,12.95
2023-01-07T18:22:50.503Z,13.07
2023-01-07T18:25:21.941Z,12.73
2023-01-07T18:27:52.872Z,12.20
2023-01-07T18:30:22.215Z,13.25
2023-01-07T18:32:52.978Z,12.70
2023-01-07T18:35:20.088Z,13.45
2023-01-07T18:37:48.880Z,12.30
2023-01-07T18:40:16.489Z,13.10
2023-01-07T18:42:43.561Z,13.10
2023-01-07T18:45:10.874Z,11.80
2023-01-07T18:47:38.043Z,12.20
2023-01-07T18:50:05.653Z,13.20
2023-01-07T18:52:33.551Z,12.10
2023-01-07T18:55:00.622Z,14.52
2023-01-07T18:57:27.533Z,15.80
2023-01-07T18:59:54.454Z,15.32
2023-01-07T19:02:22.086Z,14.43
2023-01-07T19:04:49.887Z,13.38
2023-01-07T19:07:18.104Z,13.93
2023-01-07T19:09:45.719Z,13.90
2023-01-07T19:12:12.724Z,14.55
2023-01-07T19:14:40.657Z,13.97
2023-01-07T19:17:08.394Z,13.90
2023-01-07T19:19:47.300Z,13.25
2023-01-07T19:22:16.866Z,14.40
2023-01-07T19:24:44.706Z,13.40
2023-01-07T19:27:11.816Z,14.40
2023-01-07T19:29:38.851Z,13.82
2023-01-07T19:32:05.922Z,14.63
2023-01-07T19:34:32.810Z,14.93
2023-01-07T19:37:00.383Z,14.07
2023-01-07T19:39:28.094Z,14.37
2023-01-07T19:41:59.477Z,15.73
2023-01-07T19:44:26.365Z,15.57
2023-01-07T19:46:53.233Z,16.90
2023-01-07T19:49:20.163Z,14.87
2023-01-07T19:51:47.174Z,14.27
2023-01-07T19:54:17.762Z,16.17
2023-01-07T19:56:44.981Z,16.65
2023-01-07T19:59:11.921Z,16.50
2023-01-07T20:01:39.128Z,15.23
2023-01-07T20:04:07.809Z,14.87
2023-01-07T20:06:38.882Z,15.13
2023-01-07T20:09:15.473Z,15.73
2023-01-07T20:11:43.702Z,16.27
2023-01-07T20:14:12.106Z,17.27
2023-01-07T20:16:41.515Z,15.50
2023-01-07T20:19:12.428Z,14.77
2023-01-07T20:21:40.476Z,14.77
2023-01-07T20:24:08.013Z,14.50
2023-01-07T20:26:38.215Z,14.95
2023-01-07T20:29:05.352Z,15.90
2023-01-07T20:31:33.131Z,14.77
2023-01-07T20:34:00.544Z,15.20
2023-01-07T20:36:30.150Z,14.00
2023-01-07T20:38:57.520Z,14.63
2023-01-07T20:41:28.141Z,17.63
2023-01-07T20:44:00.143Z,17.42
2023-01-07T20:46:28.858Z,15.68
2023-01-07T20:48:56.827Z,14.02
2023-01-07T20:51:24.522Z,14.93
2023-01-07T20:53:52.317Z,14.30
2023-01-07T20:56:24.096Z,15.00
2023-01-07T20:58:51.928Z,15.23
2023-01-07T21:01:21.441Z,15.32
2023-01-07T21:03:48.950Z,15.20
2023-01-07T21:06:18.211Z,16.47
2023-01-07T21:08:46.675Z,14.82
2023-01-07T21:11:19.894Z,16.20
2023-01-07T21:13:47.743Z,15.02
2023-01-07T21:16:16.028Z,14.95
2023-01-07T21:18:44.346Z,14.57
2023-01-07T21:21:16.662Z,14.43
2023-01-07T21:23:46.695Z,14.82
2023-01-07T21:26:15.528Z,14.65
2023-01-07T21:28:44.344Z,14.93
2023-01-07T21:31:13.161Z,15.27
2023-01-07T21:33:40.300Z,14.85
2023-01-07T21:36:18.627Z,16.35
2023-01-07T21:38:46.835Z,14.93
2023-01-07T21:41:17.373Z,15.52
2023-01-07T21:43:44.674Z,15.77
2023-01-07T21:46:12.729Z,15.25
2023-01-07T21:48:42.082Z,16.60
2023-01-07T21:51:22.277Z,14.20
2023-01-07T21:53:52.016Z,14.30
2023-01-07T21:56:19.181Z,15.03
2023-01-07T21:58:46.746Z,14.40
2023-01-07T22:01:14.923Z,14.98
2023-01-07T22:03:46.527Z,13.98
2023-01-07T22:06:25.419Z,14.50
2023-01-07T22:08:57.675Z,14.53
2023-01-07T22:11:25.705Z,15.63
2023-01-07T22:13:54.681Z,14.73
2023-01-07T22:16:22.857Z,12.88
2023-01-07T22:18:50.149Z,12.70
2023-01-07T22:21:18.598Z,14.03
2023-01-07T22:23:47.078Z,13.05
2023-01-07T22:26:16.403Z,13.82
2023-01-07T22:28:54.284Z,14.45
2023-01-07T22:31:24.286Z,13.35
2023-01-07T22:33:52.269Z,15.10
2023-01-07T22:36:24.108Z,13.30
2023-01-07T22:38:51.652Z,13.25
2023-01-07T22:41:18.710Z,14.00
2023-01-07T22:43:45.674Z,14.35
2023-01-07T22:46:18.996Z,14.23
2023-01-07T22:48:45.963Z,15.00
2023-01-07T22:51:20.125Z,16.55
2023-01-07T22:53:50.236Z,16.80
2023-01-07T22:56:17.216Z,15.68
2023-01-07T22:58:44.266Z,14.33
2023-01-07T23:01:14.476Z,14.23
2023-01-07T23:03:42.748Z,14.93
2023-01-07T23:06:12.976Z,14.25
2023-01-07T23:08:41.024Z,13.95
2023-01-07T23:11:08.374Z,13.83
2023-01-07T23:13:35.795Z,14.43
2023-01-07T23:16:07.663Z,14.57
2023-01-07T23:18:35.065Z,13.27
2023-01-07T23:21:04.844Z,14.52
2023-01-07T23:23:31.654Z,14.53
2023-01-07T23:25:58.503Z,14.85
2023-01-07T23:28:25.510Z,13.75
2023-01-07T23:30:52.597Z,13.73
2023-01-07T23:33:19.490Z,14.20
2023-01-07T23:35:46.355Z,13.83
2023-01-07T23:38:13.305Z,14.38
2023-01-07T23:40:40.618Z,15.02
2023-01-07T23:43:07.492Z,13.25
2023-01-07T23:45:34.429Z,15.35
2023-01-07T23:48:01.453Z,13.53
2023-01-07T23:50:28.353Z,14.20
2023-01-07T23:52:55.384Z,14.27
2023-01-07T23:55:22.410Z,13.45
2023-01-07T23:57:49.348Z,14.43
